Time;durP1;ratioP1;P1;durP2;ratioP2;P2;SDS_P1;SDS_P2;PMS_P1;PMS_P2;Temp;Humidity;BMP_temperature;BMP_pressure;BME280_temperature;BME280_humidity;BME280_pressure;Samples;Min_cycle;Max_cycle;Signal;HPM_P1;HPM_P2
2022/08/11 00:00:46;;;;;;;3.60;3.30;;;18.70;99.90;;;;;;4958510;28;20172;-75
2022/08/11 00:03:13;;;;;;;4.17;3.10;;;18.70;99.90;;;;;;4974371;28;20231;-76
2022/08/11 00:05:47;;;;;;;4.20;3.10;;;18.70;99.90;;;;;;4974174;28;20172;-76
2022/08/11 00:08:21;;;;;;;3.80;3.30;;;18.70;99.90;;;;;;4942511;28;20238;-76
2022/08/11 00:10:54;;;;;;;3.80;3.23;;;18.60;99.90;;;;;;4958134;28;20211;-75
2022/08/11 00:13:20;;;;;;;3.30;3.00;;;18.50;99.90;;;;;;4974119;28;20546;-75
2022/08/11 00:15:46;;;;;;;3.13;2.83;;;18.50;99.90;;;;;;4942343;28;20693;-76
2022/08/11 00:18:12;;;;;;;5.13;3.00;;;18.60;99.90;;;;;;4958216;28;20208;-75
2022/08/11 00:20:41;;;;;;;3.47;3.17;;;18.50;99.90;;;;;;4958461;28;20181;-75
2022/08/11 00:23:12;;;;;;;4.30;3.37;;;18.60;99.90;;;;;;4974178;28;20243;-76
2022/08/11 00:25:44;;;;;;;3.83;3.03;;;18.60;99.90;;;;;;5013073;23;20226;-75
2022/08/11 00:28:30;;;;;;;4.20;3.40;;;18.50;99.90;;;;;;5033816;28;20675;-74
2022/08/11 00:30:58;;;;;;;4.83;3.43;;;18.20;99.90;;;;;;5016462;28;20170;-74
2022/08/11 00:33:32;;;;;;;3.93;3.40;;;18.30;99.90;;;;;;5016209;28;20181;-74
2022/08/11 00:36:01;;;;;;;3.33;3.00;;;18.40;99.90;;;;;;4996745;28;20214;-74
2022/08/11 00:38:31;;;;;;;3.47;3.17;;;18.40;99.90;;;;;;5013909;28;20250;-74
2022/08/11 00:41:19;;;;;;;3.33;3.00;;;18.30;99.90;;;;;;4996598;28;20213;-75
2022/08/11 00:44:11;;;;;;;4.10;3.03;;;18.20;99.90;;;;;;4996346;28;20171;-75
2022/08/11 00:47:04;;;;;;;3.90;3.30;;;18.00;99.90;;;;;;4995965;28;20203;-75
2022/08/11 00:50:01;;;;;;;3.43;3.10;;;18.10;99.90;;;;;;4996133;28;20175;-75
2022/08/11 00:52:46;;;;;;;3.50;3.20;;;18.10;99.90;;;;;;5013423;28;20171;-74
2022/08/11 00:55:35;;;;;;;3.50;3.20;;;18.10;99.90;;;;;;5013506;28;20216;-74
2022/08/11 00:58:23;;;;;;;3.40;3.17;;;18.10;99.90;;;;;;4996095;28;20251;-74
2022/08/11 01:01:08;;;;;;;4.90;3.47;;;18.00;99.90;;;;;;4995981;28;20542;-74
2022/08/11 01:03:55;;;;;;;7.13;3.50;;;17.90;99.90;;;;;;4995935;28;20728;-74
2022/08/11 01:06:43;;;;;;;3.40;3.17;;;17.90;99.90;;;;;;4995897;28;20202;-74
2022/08/11 01:09:28;;;;;;;4.03;3.30;;;17.80;99.90;;;;;;4968571;28;20210;-75
2022/08/11 01:12:31;;;;;;;3.90;3.60;;;17.70;99.90;;;;;;5013549;28;20553;-74
2022/08/11 01:15:24;;;;;;;3.60;3.10;;;17.60;99.90;;;;;;5013302;28;20194;-74
2022/08/11 01:18:27;;;;;;;4.57;3.27;;;17.30;99.90;;;;;;4995537;28;20595;-74
2022/08/11 01:21:23;;;;;;;4.53;3.10;;;17.40;99.90;;;;;;5013202;28;20541;-74
2022/08/11 01:24:10;;;;;;;3.90;3.50;;;17.60;99.90;;;;;;5013036;28;20166;-74
2022/08/11 01:27:05;;;;;;;3.67;3.33;;;17.50;99.90;;;;;;5013003;28;20253;-74
2022/08/11 01:29:55;;;;;;;3.50;3.20;;;17.60;99.90;;;;;;4982658;28;20559;-74
2022/08/11 01:32:20;;;;;;;3.73;3.30;;;17.40;99.90;;;;;;4995440;28;20175;-74
2022/08/11 01:35:04;;;;;;;4.00;3.60;;;17.30;99.90;;;;;;5012863;28;20198;-74
2022/08/11 01:38:11;;;;;;;3.60;3.30;;;17.30;99.90;;;;;;5013197;28;20187;-75
2022/08/11 01:41:02;;;;;;;4.10;3.70;;;17.20;99.90;;;;;;4995660;28;20166;-74
2022/08/11 01:50:35;;;;;;;4.37;3.63;;;17.10;99.90;;;;;;5012698;28;20545;-74
2022/08/11 01:53:22;;;;;;;3.97;3.57;;;17.20;99.90;;;;;;4995508;28;20171;-74
2022/08/11 01:56:10;;;;;;;3.50;3.20;;;17.40;99.90;;;;;;5012523;28;20198;-74
2022/08/11 01:58:41;;;;;;;3.43;3.13;;;17.30;99.90;;;;;;4995046;28;20171;-74
2022/08/11 02:01:34;;;;;;;3.80;3.50;;;17.30;99.90;;;;;;5012650;28;20162;-74
2022/08/11 02:04:24;;;;;;;3.83;3.53;;;17.20;99.90;;;;;;4994275;28;20209;-74
2022/08/11 02:07:29;;;;;;;3.77;3.47;;;17.30;99.90;;;;;;4994920;28;20233;-74
2022/08/11 02:13:51;;;;;;;3.80;3.50;;;17.40;99.90;;;;;;5012545;28;20209;-74
2022/08/11 02:16:42;;;;;;;3.90;3.60;;;17.10;99.90;;;;;;4976621;28;20221;-74
2022/08/11 02:25:49;;;;;;;4.67;3.50;;;16.70;99.90;;;;;;5012356;28;20276;-74
2022/08/11 02:28:27;;;;;;;3.70;3.40;;;16.70;99.90;;;;;;4994831;28;20175;-75
2022/08/11 02:34:11;;;;;;;4.33;3.73;;;16.60;99.90;;;;;;5012574;28;20245;-75
2022/08/11 02:37:14;;;;;;;4.30;3.87;;;16.50;99.90;;;;;;4994704;28;20248;-75
2022/08/11 02:39:48;;;;;;;3.80;3.50;;;16.60;99.90;;;;;;4976900;28;20197;-74
2022/08/11 02:42:30;;;;;;;4.10;3.70;;;16.50;99.90;;;;;;4994672;28;20172;-75
2022/08/11 02:45:11;;;;;;;4.27;3.70;;;16.50;99.90;;;;;;4994652;28;20282;-74
2022/08/11 02:51:16;;;;;;;4.03;3.73;;;16.40;99.90;;;;;;5012224;28;20166;-74
2022/08/11 02:53:45;;;;;;;3.60;3.30;;;16.50;99.90;;;;;;4994689;28;20646;-75
2022/08/11 02:56:21;;;;;;;4.23;3.83;;;16.60;99.90;;;;;;4994527;28;20254;-76
2022/08/11 03:02:16;;;;;;;3.87;3.50;;;16.30;99.90;;;;;;4997517;28;20170;-75
2022/08/11 03:04:55;;;;;;;4.10;3.80;;;16.00;99.90;;;;;;4994402;28;20274;-74
2022/08/11 03:07:39;;;;;;;3.90;3.50;;;16.00;99.90;;;;;;4994276;28;20201;-75
2022/08/11 03:10:22;;;;;;;5.50;3.97;;;16.10;99.90;;;;;;4994484;28;20171;-74
2022/08/11 03:16:46;;;;;;;5.40;3.93;;;16.00;99.90;;;;;;5015535;28;20185;-74
2022/08/11 03:19:25;;;;;;;4.00;3.70;;;15.90;99.90;;;;;;4998113;28;20178;-74
2022/08/11 03:22:22;;;;;;;4.10;3.70;;;15.90;99.90;;;;;;5015289;28;20769;-75
2022/08/11 03:24:52;;;;;;;3.93;3.53;;;16.10;99.90;;;;;;4997672;28;20587;-74
2022/08/11 03:27:51;;;;;;;4.13;3.80;;;16.00;99.90;;;;;;4997518;28;20209;-74
2022/08/11 03:30:33;;;;;;;5.67;4.00;;;15.80;99.90;;;;;;4998033;28;20178;-74
2022/08/11 03:36:19;;;;;;;4.00;3.70;;;15.60;99.90;;;;;;5015161;28;20691;-74
2022/08/11 03:38:59;;;;;;;4.60;4.07;;;15.60;99.90;;;;;;5015288;28;20175;-75
2022/08/11 03:41:51;;;;;;;4.67;4.10;;;15.70;99.90;;;;;;4997543;28;20195;-75
2022/08/11 03:44:59;;;;;;;4.43;4.03;;;15.60;99.90;;;;;;4997459;28;20257;-74
2022/08/11 03:47:32;;;;;;;3.73;3.43;;;15.60;99.90;;;;;;4997301;28;20198;-75
2022/08/11 03:50:25;;;;;;;4.10;3.80;;;15.70;99.90;;;;;;4997442;28;20641;-75
2022/08/11 03:53:19;;;;;;;4.30;3.80;;;15.50;99.90;;;;;;4997350;28;20171;-75
2022/08/11 03:55:44;;;;;;;4.13;3.83;;;15.50;99.90;;;;;;4997177;28;20210;-74
2022/08/11 03:58:46;;;;;;;3.90;3.53;;;15.60;99.90;;;;;;4997059;28;20187;-74
2022/08/11 04:02:07;;;;;;;4.30;4.00;;;15.50;99.90;;;;;;5014781;28;20203;-74
2022/08/11 04:05:11;;;;;;;4.70;3.77;;;15.40;99.90;;;;;;4937822;29;20204;-74
2022/08/11 04:08:01;;;;;;;4.27;3.90;;;15.20;99.90;;;;;;4953924;29;20209;-74
2022/08/11 04:10:57;;;;;;;4.30;3.90;;;15.30;99.90;;;;;;4997228;28;20687;-74
2022/08/11 04:13:47;;;;;;;4.20;3.80;;;15.30;99.90;;;;;;4996968;28;20198;-75
2022/08/11 04:16:52;;;;;;;4.53;4.13;;;15.40;99.90;;;;;;4996738;28;20198;-75
2022/08/11 04:19:53;;;;;;;4.37;3.97;;;15.30;99.90;;;;;;4996795;28;20185;-74
2022/08/11 04:22:37;;;;;;;4.20;3.80;;;15.20;99.90;;;;;;4953692;29;20181;-75
2022/08/11 04:25:13;;;;;;;4.47;4.07;;;15.10;99.90;;;;;;4991698;28;20218;-74
2022/08/11 04:28:06;;;;;;;4.33;4.00;;;15.30;99.90;;;;;;4996095;28;20269;-75
2022/08/11 04:30:49;;;;;;;4.63;4.10;;;15.30;99.90;;;;;;4996649;28;20175;-75
2022/08/11 04:33:40;;;;;;;4.20;3.87;;;15.30;99.90;;;;;;4996677;28;20179;-75
2022/08/11 04:37:30;;;;;;;4.87;4.50;;;15.30;99.90;;;;;;4996850;28;20294;-75
2022/08/11 04:39:06;;;;;;;5.73;3.80;;;15.20;99.90;;;;;;5013942;28;20183;-74
2022/08/11 04:45:20;;;;;;;4.70;4.30;;;15.30;99.90;;;;;;5014168;28;20205;-75
2022/08/11 05:03:13;;;;;;;5.17;4.67;;;15.00;99.90;;;;;;5013745;28;20274;-75
2022/08/11 05:06:05;;;;;;;4.40;4.00;;;15.00;99.90;;;;;;5013376;28;20565;-75
2022/08/11 05:08:52;;;;;;;4.40;4.00;;;15.00;99.90;;;;;;4973173;28;20179;-75
2022/08/11 05:11:48;;;;;;;4.70;3.97;;;15.00;99.90;;;;;;4995719;28;20277;-75
2022/08/11 05:37:28;;;;;;;4.37;3.93;;;15.70;99.90;;;;;;5012998;28;20198;-74
2022/08/11 05:57:32;;;;;;;4.23;3.93;;;16.30;99.90;;;;;;4997950;28;20182;-76
2022/08/11 06:00:00;;;;;;;4.70;4.30;;;16.40;99.90;;;;;;5012580;28;20171;-77
2022/08/11 06:02:28;;;;;;;4.90;4.50;;;16.40;99.90;;;;;;4979119;28;20562;-75
2022/08/11 06:04:57;;;;;;;4.80;4.37;;;16.50;99.90;;;;;;4978617;28;20199;-76
2022/08/11 06:07:28;;;;;;;4.80;4.30;;;16.60;99.90;;;;;;4994723;28;20225;-75
2022/08/11 06:09:57;;;;;;;7.83;4.67;;;16.60;99.90;;;;;;4978745;28;20266;-75
2022/08/11 06:12:31;;;;;;;5.13;4.37;;;16.60;99.90;;;;;;4978876;28;20190;-76
2022/08/11 06:15:00;;;;;;;4.73;4.30;;;16.70;99.90;;;;;;4979859;28;20201;-75
2022/08/11 06:17:32;;;;;;;4.60;4.20;;;16.80;99.90;;;;;;4994572;28;20177;-76
2022/08/11 06:20:01;;;;;;;6.23;4.33;;;16.90;99.90;;;;;;4979038;28;20610;-75
2022/08/11 06:22:28;;;;;;;4.50;4.03;;;16.90;99.90;;;;;;4994422;28;20531;-75
2022/08/11 06:24:59;;;;;;;6.77;4.83;;;17.00;99.90;;;;;;4991602;23;20705;-75
2022/08/11 06:27:28;;;;;;;5.33;4.47;;;17.10;99.90;;;;;;4955891;28;20295;-75
2022/08/11 06:29:55;;;;;;;4.87;4.47;;;17.20;99.90;;;;;;4956102;28;20180;-75
2022/08/11 06:32:27;;;;;;;5.73;4.27;;;17.30;99.90;;;;;;4955909;28;20603;-75
2022/08/11 06:35:20;;;;;;;6.00;4.20;;;17.30;99.90;;;;;;4956727;28;20207;-75
2022/08/11 06:38:15;;;;;;;6.00;4.40;;;17.40;99.90;;;;;;4971746;28;20176;-75
2022/08/11 06:44:04;;;;;;;4.50;3.80;;;17.70;99.90;;;;;;4973419;28;20298;-75
2022/08/11 06:46:36;;;;;;;4.87;4.00;;;17.90;99.90;;;;;;4955543;28;20255;-75
2022/08/11 06:49:03;;;;;;;6.07;4.00;;;18.00;99.90;;;;;;4973893;28;20173;-75
2022/08/11 06:51:29;;;;;;;3.93;3.60;;;18.10;99.90;;;;;;4975656;28;20275;-75
2022/08/11 06:53:59;;;;;;;4.43;3.90;;;18.20;99.90;;;;;;4961355;28;20187;-75
2022/08/11 07:02:10;;;;;;;4.87;4.03;;;18.60;99.90;;;;;;4962550;28;20264;-75
2022/08/11 07:04:38;;;;;;;4.20;3.80;;;18.80;99.90;;;;;;4959410;28;20674;-75
2022/08/11 07:16:27;;;;;;;5.10;3.90;;;19.40;99.90;;;;;;4961863;28;20187;-75
2022/08/11 07:30:11;;;;;;;3.80;3.50;;;20.20;99.90;;;;;;4962551;28;20268;-75
2022/08/11 07:32:49;;;;;;;3.93;3.43;;;20.30;99.90;;;;;;4974951;28;20176;-75
2022/08/11 07:35:19;;;;;;;4.40;3.50;;;20.50;99.90;;;;;;4974871;28;20219;-75
2022/08/11 07:37:55;;;;;;;3.73;3.43;;;20.60;99.90;;;;;;4974820;28;20177;-76
2022/08/11 07:40:23;;;;;;;3.83;3.50;;;20.70;99.90;;;;;;4974926;28;20282;-76
2022/08/11 07:42:50;;;;;;;3.57;3.23;;;20.90;99.90;;;;;;4958713;28;20187;-75
2022/08/11 07:53:33;;;;;;;4.88;3.15;;;21.50;99.90;;;;;;4961527;28;20231;-75
2022/08/11 07:56:00;;;;;;;3.80;3.40;;;21.70;99.90;;;;;;4942417;28;20231;-75
2022/08/11 08:18:01;;;;;;;3.47;2.90;;;23.10;99.90;;;;;;4975605;28;20183;-75
2022/08/11 08:20:35;;;;;;;3.03;2.72;;;23.30;99.90;;;;;;4974304;28;20259;-75
2022/08/11 08:23:04;;;;;;;3.38;2.72;;;23.70;99.90;;;;;;4973846;28;20208;-75
2022/08/11 08:25:32;;;;;;;2.60;2.40;;;23.90;96.90;;;;;;4975271;28;20675;-75
2022/08/11 08:28:01;;;;;;;2.83;2.33;;;24.10;96.90;;;;;;4941958;28;20204;-75
2022/08/11 08:30:46;;;;;;;3.92;2.70;;;24.10;96.00;;;;;;4974166;28;20582;-75
2022/08/11 08:33:23;;;;;;;2.80;2.30;;;24.10;96.80;;;;;;4973930;28;20231;-75
2022/08/11 08:36:10;;;;;;;2.40;2.20;;;23.90;95.20;;;;;;4942438;28;20206;-75
2022/08/11 08:38:56;;;;;;;4.10;2.45;;;24.00;94.90;;;;;;4960459;28;20631;-75
2022/08/11 08:41:27;;;;;;;3.75;2.42;;;24.40;94.10;;;;;;4973393;28;20192;-75
2022/08/11 08:43:58;;;;;;;4.65;2.47;;;24.90;93.00;;;;;;4973631;28;20578;-75
2022/08/11 08:46:32;;;;;;;2.92;2.60;;;25.40;83.00;;;;;;4957911;28;20208;-75
2022/08/11 08:49:00;;;;;;;3.28;2.33;;;25.60;81.60;;;;;;4973584;28;20172;-75
2022/08/11 08:51:35;;;;;;;3.53;2.25;;;25.90;76.10;;;;;;4942425;28;20223;-75
2022/08/11 08:54:07;;;;;;;4.65;2.50;;;25.90;71.80;;;;;;4958537;28;20180;-75
2022/08/11 08:56:34;;;;;;;4.00;2.30;;;26.10;73.10;;;;;;4974476;28;20169;-75
2022/08/11 08:59:04;;;;;;;2.38;2.17;;;26.30;69.60;;;;;;4973499;28;20272;-75
2022/08/11 09:01:35;;;;;;;4.20;2.30;;;26.40;67.80;;;;;;4973261;28;20263;-75
2022/08/11 09:04:06;;;;;;;3.38;2.38;;;26.70;70.20;;;;;;4957161;28;20187;-75
2022/08/11 09:06:33;;;;;;;2.33;2.13;;;26.80;67.00;;;;;;4973240;28;20216;-76
2022/08/11 09:08:58;;;;;;;2.60;2.15;;;26.80;67.40;;;;;;4973158;28;20227;-76
2022/08/11 09:14:09;;;;;;;2.90;2.10;;;26.50;61.30;;;;;;4960095;28;20235;-76
2022/08/11 09:16:35;;;;;;;2.60;2.40;;;26.70;64.60;;;;;;4972889;28;20180;-76
2022/08/11 09:19:02;;;;;;;2.70;2.20;;;27.00;58.10;;;;;;4957078;28;20444;-76
2022/08/11 09:21:30;;;;;;;3.88;2.58;;;27.00;57.90;;;;;;4956968;28;20188;-75
2022/08/11 09:26:58;;;;;;;2.58;2.38;;;26.70;58.10;;;;;;4959457;28;20215;-75
2022/08/11 09:29:25;;;;;;;3.88;2.45;;;26.50;57.00;;;;;;4929099;28;20180;-75
2022/08/11 09:31:52;;;;;;;2.38;2.17;;;26.40;59.30;;;;;;4940955;28;20187;-75
2022/08/11 09:34:18;;;;;;;2.90;2.65;;;26.30;58.90;;;;;;4925060;28;20267;-75
2022/08/11 09:42:15;;;;;;;2.90;2.60;;;26.30;56.90;;;;;;4959770;28;20188;-75
2022/08/11 09:44:47;;;;;;;3.33;2.50;;;26.50;56.70;;;;;;4973737;28;20215;-75
2022/08/11 09:47:22;;;;;;;3.63;2.38;;;26.80;55.80;;;;;;4941201;28;20220;-75
2022/08/11 09:49:51;;;;;;;3.97;2.50;;;27.10;55.40;;;;;;4956462;28;20175;-75
2022/08/11 09:52:17;;;;;;;2.85;2.55;;;27.30;53.70;;;;;;4941099;28;20181;-75
2022/08/11 09:54:47;;;;;;;3.38;2.50;;;27.50;54.10;;;;;;4972442;28;20196;-76
2022/08/11 09:59:57;;;;;;;4.82;2.42;;;27.80;50.70;;;;;;4959294;28;20251;-76
2022/08/11 10:02:26;;;;;;;3.63;2.70;;;27.80;50.70;;;;;;4973578;28;20647;-75
2022/08/11 10:07:00;;;;;;;3.50;2.50;;;28.10;52.20;;;;;;4956254;28;20278;-75
2022/08/11 10:07:49;;;;;;;4.45;2.35;;;28.30;51.00;;;;;;4959504;28;20212;-76
2022/08/11 10:10:21;;;;;;;5.38;2.67;;;28.50;49.10;;;;;;4940989;28;20191;-76
2022/08/11 10:12:50;;;;;;;2.50;2.30;;;28.50;48.10;;;;;;4973395;28;20168;-76
2022/08/11 10:15:33;;;;;;;3.78;2.42;;;28.80;49.10;;;;;;4956240;28;20745;-76
2022/08/11 10:21:28;;;;;;;2.85;2.50;;;29.10;48.70;;;;;;4913777;29;20222;-76
2022/08/11 10:26:57;;;;;;;2.70;2.50;;;29.40;47.80;;;;;;4953982;28;20231;-76
2022/08/11 10:34:57;;;;;;;2.85;2.45;;;29.50;45.30;;;;;;4958858;28;20349;-76
2022/08/11 10:37:24;;;;;;;3.17;2.40;;;29.60;46.60;;;;;;4955857;28;20207;-76
2022/08/11 10:39:51;;;;;;;2.80;2.60;;;29.60;45.40;;;;;;4973603;28;20172;-76
2022/08/11 10:47:33;;;;;;;2.60;2.40;;;29.20;43.60;;;;;;4973437;28;20755;-75
2022/08/11 10:47:55;;;;;;;3.35;2.72;;;29.20;43.10;;;;;;4958724;28;20230;-75
2022/08/11 10:58:48;;;;;;;2.80;2.60;;;30.00;42.00;;;;;;4958944;28;20557;-76
2022/08/11 11:01:26;;;;;;;2.92;2.63;;;30.10;42.10;;;;;;4941080;28;20213;-76
2022/08/11 11:03:59;;;;;;;2.53;2.33;;;29.90;41.30;;;;;;4924225;28;20557;-76
2022/08/11 11:06:43;;;;;;;2.90;2.50;;;30.30;41.90;;;;;;4971606;28;20227;-76
2022/08/11 11:09:16;;;;;;;2.70;2.47;;;30.30;40.40;;;;;;4971557;28;20176;-76
2022/08/11 11:17:55;;;;;;;2.70;2.40;;;30.70;40.60;;;;;;4857043;29;20664;-76
2022/08/11 11:20:33;;;;;;;2.95;2.60;;;31.10;39.90;;;;;;4934748;28;20196;-76
2022/08/11 11:23:10;;;;;;;4.68;2.35;;;31.00;40.80;;;;;;4955699;28;20199;-76
2022/08/11 11:26:11;;;;;;;2.78;2.58;;;30.90;39.30;;;;;;4955521;28;20306;-76
2022/08/11 11:28:46;;;;;;;2.70;2.50;;;30.60;39.40;;;;;;4955485;28;20188;-76
2022/08/11 11:31:30;;;;;;;3.53;2.30;;;30.90;39.70;;;;;;4955692;28;20710;-76
2022/08/11 11:34:14;;;;;;;3.25;2.55;;;31.20;39.10;;;;;;4971596;28;20181;-76
2022/08/11 11:36:48;;;;;;;3.25;2.30;;;31.30;39.20;;;;;;4958249;28;20172;-76
2022/08/11 11:39:18;;;;;;;2.58;2.38;;;31.80;37.50;;;;;;4959002;28;20601;-76
2022/08/11 11:41:44;;;;;;;3.60;2.40;;;32.10;38.20;;;;;;4958745;28;20180;-76
2022/08/11 11:44:12;;;;;;;3.00;2.40;;;31.90;36.70;;;;;;4926943;28;20722;-76
2022/08/11 11:46:40;;;;;;;4.72;2.42;;;31.60;37.30;;;;;;4974608;28;20204;-76
2022/08/11 11:49:08;;;;;;;3.50;2.20;;;31.70;36.80;;;;;;4942932;28;20231;-76
2022/08/11 11:51:35;;;;;;;2.22;1.95;;;31.90;36.20;;;;;;4943158;28;20605;-76
2022/08/11 11:54:02;;;;;;;3.10;2.40;;;32.10;36.40;;;;;;4974660;28;20745;-76
2022/08/11 11:56:28;;;;;;;2.42;2.17;;;32.20;36.20;;;;;;4942453;28;20263;-76
2022/08/11 12:01:42;;;;;;;3.10;2.42;;;31.80;35.10;;;;;;4976038;28;20240;-76
2022/08/11 12:04:10;;;;;;;2.25;2.00;;;32.00;35.50;;;;;;4974689;28;20188;-76
2022/08/11 12:06:36;;;;;;;2.45;2.20;;;32.00;33.90;;;;;;4958179;28;20208;-76
2022/08/11 12:09:03;;;;;;;2.30;2.10;;;32.20;35.10;;;;;;4958576;28;20187;-76
2022/08/11 12:14:19;;;;;;;2.38;2.17;;;32.20;33.80;;;;;;4975721;28;20179;-76
2022/08/11 12:16:47;;;;;;;2.33;2.13;;;32.30;35.10;;;;;;4942760;28;20172;-76
2022/08/11 12:19:22;;;;;;;4.07;2.60;;;32.30;33.80;;;;;;4974169;28;20629;-76
2022/08/11 12:27:29;;;;;;;2.42;2.22;;;32.80;33.20;;;;;;4941670;28;20210;-76
2022/08/11 12:30:02;;;;;;;4.95;2.35;;;32.70;32.80;;;;;;4961264;28;20226;-76
2022/08/11 12:32:31;;;;;;;4.65;2.35;;;32.60;30.80;;;;;;4994643;28;20168;-76
2022/08/11 12:34:57;;;;;;;3.35;2.10;;;32.90;30.80;;;;;;4977189;28;20694;-76
2022/08/11 12:37:30;;;;;;;2.72;2.03;;;33.00;30.80;;;;;;4977230;28;20207;-76
2022/08/11 12:45:31;;;;;;;2.85;2.20;;;33.50;30.60;;;;;;4980000;28;20206;-76
2022/08/11 12:53:43;;;;;;;2.40;2.20;;;33.40;29.10;;;;;;4980513;28;20179;-76
2022/08/11 13:07:14;;;;;;;2.47;2.20;;;33.40;29.70;;;;;;4994348;28;20187;-75
2022/08/11 13:09:41;;;;;;;2.67;2.00;;;33.30;28.20;;;;;;4976825;28;20167;-76
2022/08/11 13:14:52;;;;;;;2.88;2.42;;;32.80;28.00;;;;;;4993922;28;20254;-75
2022/08/11 13:17:21;;;;;;;2.30;2.10;;;33.20;27.80;;;;;;4960585;28;20217;-76
2022/08/11 13:19:49;;;;;;;3.08;2.13;;;33.40;27.60;;;;;;4945407;28;20538;-76
2022/08/11 13:22:17;;;;;;;2.83;2.10;;;33.60;27.60;;;;;;4960439;28;20182;-76
2022/08/11 13:24:44;;;;;;;2.47;2.08;;;33.90;28.10;;;;;;4944400;28;20238;-76
2022/08/11 13:27:11;;;;;;;3.47;1.90;;;34.10;28.20;;;;;;4944564;28;20214;-76
2022/08/11 13:29:40;;;;;;;3.33;2.42;;;34.00;27.80;;;;;;4976488;28;20199;-76
2022/08/11 13:32:07;;;;;;;2.20;2.00;;;33.70;26.00;;;;;;4976068;28;20179;-76
2022/08/11 13:34:40;;;;;;;2.10;1.92;;;33.40;26.30;;;;;;4976001;28;20179;-76
2022/08/11 13:37:07;;;;;;;2.30;2.10;;;33.50;26.20;;;;;;4993472;28;20184;-76
2022/08/11 13:39:34;;;;;;;2.65;2.13;;;33.50;26.00;;;;;;4944077;28;20179;-76
2022/08/11 13:42:02;;;;;;;2.33;2.13;;;33.20;26.70;;;;;;4993371;28;20168;-76
2022/08/11 13:44:36;;;;;;;2.45;2.25;;;33.70;28.80;;;;;;4976205;28;20172;-76
2022/08/11 13:47:05;;;;;;;2.78;1.92;;;34.10;28.80;;;;;;4959955;28;20188;-76
2022/08/11 13:49:35;;;;;;;3.83;2.08;;;34.40;27.00;;;;;;4960292;28;20175;-76
2022/08/11 13:52:03;;;;;;;3.30;2.55;;;34.70;27.20;;;;;;4976384;28;20180;-76
2022/08/11 13:54:37;;;;;;;2.40;2.20;;;34.90;26.20;;;;;;4943988;28;20215;-76
2022/08/11 13:57:05;;;;;;;4.15;2.20;;;34.90;26.80;;;;;;4975567;28;20678;-76
2022/08/11 13:59:31;;;;;;;3.17;2.20;;;34.90;27.40;;;;;;4942951;28;20184;-76
2022/08/11 14:02:06;;;;;;;2.55;2.25;;;35.00;26.50;;;;;;4976020;28;20693;-76
2022/08/11 14:04:49;;;;;;;2.17;2.03;;;34.40;27.00;;;;;;4943813;28;20202;-76
2022/08/11 14:07:19;;;;;;;3.42;1.95;;;34.50;27.60;;;;;;4975494;28;20641;-76
2022/08/11 14:09:45;;;;;;;2.38;2.17;;;34.20;26.60;;;;;;4943831;28;20226;-76
2022/08/11 14:15:18;;;;;;;2.33;2.10;;;33.80;26.30;;;;;;4993144;28;20194;-75
2022/08/11 14:17:49;;;;;;;2.67;2.30;;;33.30;27.40;;;;;;4959623;28;20195;-76
2022/08/11 14:20:17;;;;;;;3.00;2.35;;;33.10;28.00;;;;;;4975485;28;20183;-76
2022/08/11 14:22:45;;;;;;;2.78;2.38;;;33.20;28.30;;;;;;4959509;28;20263;-76
2022/08/11 14:25:14;;;;;;;2.75;2.30;;;32.90;28.10;;;;;;4975227;28;20319;-76
2022/08/11 14:27:40;;;;;;;2.95;2.47;;;33.20;29.30;;;;;;4975335;28;20184;-76
2022/08/11 14:30:53;;;;;;;4.35;2.70;;;33.50;29.00;;;;;;4943578;28;20183;-76
2022/08/11 14:32:54;;;;;;;2.42;2.22;;;33.40;29.00;;;;;;4978127;28;20269;-76
2022/08/11 14:35:20;;;;;;;2.78;2.25;;;34.00;28.60;;;;;;4959597;28;20206;-76
2022/08/11 14:37:46;;;;;;;3.20;2.40;;;34.30;28.40;;;;;;4959163;28;20203;-76
2022/08/11 14:47:03;;;;;;;2.53;2.28;;;34.60;28.10;;;;;;4943462;28;20572;-76
2022/08/11 14:48:29;;;;;;;3.50;2.45;;;34.30;27.60;;;;;;4992483;28;20178;-76
2022/08/11 14:50:55;;;;;;;4.35;2.35;;;34.40;27.60;;;;;;4943405;28;20176;-76
2022/08/11 14:53:22;;;;;;;2.53;2.33;;;34.00;27.50;;;;;;4975073;28;20206;-76
2022/08/11 14:58:33;;;;;;;2.55;2.35;;;34.50;27.90;;;;;;4992479;28;20179;-76
2022/08/11 15:01:01;;;;;;;4.10;2.30;;;34.60;27.70;;;;;;4959221;28;20175;-76
2022/08/11 15:03:32;;;;;;;2.63;2.15;;;34.10;26.80;;;;;;4992522;28;20294;-76
2022/08/11 15:06:03;;;;;;;2.63;2.30;;;33.90;27.60;;;;;;4943547;28;20214;-76
2022/08/11 15:08:53;;;;;;;2.25;1.90;;;33.60;26.50;;;;;;4959374;28;20172;-76
2022/08/11 15:14:12;;;;;;;5.07;2.30;;;33.50;27.40;;;;;;4982460;28;20226;-76
2022/08/11 15:19:29;;;;;;;3.03;2.20;;;33.80;27.80;;;;;;4981717;28;20178;-76
2022/08/11 15:24:39;;;;;;;3.17;2.40;;;33.60;27.20;;;;;;4981428;28;20657;-76
2022/08/11 15:38:14;;;;;;;2.90;2.20;;;33.80;27.30;;;;;;4980894;28;20221;-77
2022/08/11 15:46:29;;;;;;;3.45;2.30;;;33.40;26.70;;;;;;4995759;28;20195;-76
2022/08/11 15:49:04;;;;;;;2.80;2.22;;;33.10;27.60;;;;;;4978115;28;20189;-76
2022/08/11 15:51:48;;;;;;;2.55;2.20;;;33.10;27.00;;;;;;4963068;28;20649;-76
2022/08/11 15:54:18;;;;;;;3.22;2.00;;;33.10;27.50;;;;;;4978286;28;20187;-76
2022/08/11 15:56:47;;;;;;;3.05;2.10;;;33.10;26.80;;;;;;4978013;28;20203;-76
2022/08/11 16:04:48;;;;;;;3.13;2.20;;;33.50;27.30;;;;;;4995442;28;20243;-76
2022/08/11 16:07:18;;;;;;;4.00;2.53;;;33.70;27.50;;;;;;4961668;28;20183;-76
2022/08/11 16:09:51;;;;;;;4.03;2.42;;;33.40;27.00;;;;;;4961939;28;20598;-76
2022/08/11 16:12:26;;;;;;;3.58;2.25;;;33.10;27.40;;;;;;4977652;28;20176;-76
2022/08/11 16:17:44;;;;;;;3.45;2.25;;;32.70;27.90;;;;;;4995038;28;20198;-75
2022/08/11 16:20:12;;;;;;;4.32;2.33;;;32.40;27.40;;;;;;4994810;28;20175;-76
2022/08/11 16:22:42;;;;;;;3.17;2.45;;;32.90;27.30;;;;;;4976312;28;20176;-76
2022/08/11 16:25:14;;;;;;;3.80;2.30;;;32.90;27.70;;;;;;4961686;28;20597;-76
2022/08/11 16:27:48;;;;;;;3.83;2.35;;;33.10;27.90;;;;;;4994738;28;20168;-76
2022/08/11 16:30:14;;;;;;;2.58;2.38;;;32.90;28.00;;;;;;4977891;28;20561;-77
2022/08/11 16:32:46;;;;;;;4.47;2.05;;;33.10;28.30;;;;;;4994585;28;20176;-76
2022/08/11 16:40:51;;;;;;;5.30;2.35;;;32.70;28.90;;;;;;4994901;28;20187;-75
2022/08/11 16:48:52;;;;;;;4.68;2.22;;;32.00;28.80;;;;;;4979913;28;20199;-75
2022/08/11 16:51:19;;;;;;;3.65;2.10;;;31.40;28.80;;;;;;4960739;28;20180;-75
2022/08/11 16:53:47;;;;;;;2.17;2.00;;;31.30;29.30;;;;;;4976879;28;20187;-76
2022/08/11 16:56:20;;;;;;;4.40;2.30;;;31.10;29.00;;;;;;4945092;28;20192;-76
2022/08/11 17:01:37;;;;;;;4.00;2.15;;;30.70;30.00;;;;;;4994379;28;20179;-76
2022/08/11 17:18:05;;;;;;;3.60;2.00;;;30.40;30.10;;;;;;4993674;28;20258;-76
2022/08/11 17:20:32;;;;;;;2.22;2.03;;;30.40;29.60;;;;;;4976290;28;20175;-75
2022/08/11 17:25:47;;;;;;;4.28;2.33;;;30.10;30.10;;;;;;4979116;28;20273;-75
2022/08/11 17:28:15;;;;;;;2.72;2.28;;;29.80;30.50;;;;;;4960417;28;20252;-76
2022/08/11 17:36:12;;;;;;;3.38;1.90;;;29.60;30.50;;;;;;4979135;28;20211;-76
2022/08/11 17:38:39;;;;;;;3.67;2.03;;;29.60;30.30;;;;;;4976201;28;20267;-75
2022/08/11 17:49:23;;;;;;;2.35;1.90;;;29.00;30.80;;;;;;4978837;28;20257;-75
2022/08/11 18:00:07;;;;;;;2.55;2.17;;;28.40;31.50;;;;;;4993526;28;20511;-75
2022/08/11 18:05:27;;;;;;;4.22;2.00;;;28.30;32.10;;;;;;4993434;28;20227;-75
